sensor_id;sensor_type;location;lat;lon;timestamp;pressure;altitude;pressure_sealevel;temperature;humidity
13367;BME280;6752;52.612;13.630;2023-05-01T00:03:40;101500.78;;;4.22;100.00
13367;BME280;6752;52.612;13.630;2023-05-01T00:08:42;101504.48;;;4.21;100.00
13367;BME280;6752;52.612;13.630;2023-05-01T00:13:44;101501.33;;;4.12;100.00
13367;BME280;6752;52.612;13.630;2023-05-01T00:18:46;101497.90;;;4.02;100.00
13367;BME280;6752;52.612;13.630;2023-05-01T00:23:49;101488.72;;;3.95;100.00
13367;BME280;6752;52.612;13.630;2023-05-01T00:28:51;101488.24;;;4.00;100.00
13367;BME280;6752;52.612;13.630;2023-05-01T00:33:53;101490.39;;;3.92;100.00
13367;BME280;6752;52.612;13.630;2023-05-01T00:38:56;101479.53;;;3.80;100.00
13367;BME280;6752;52.612;13.630;2023-05-01T00:43:58;101471.02;;;3.80;100.00
13367;BME280;6752;52.612;13.630;2023-05-01T00:49:00;101473.13;;;3.72;100.00
13367;BME280;6752;52.612;13.630;2023-05-01T00:54:02;101472.15;;;3.64;100.00
13367;BME280;6752;52.612;13.630;2023-05-01T00:59:05;101467.14;;;3.51;100.00
13367;BME280;6752;52.612;13.630;2023-05-01T01:04:10;101466.77;;;3.46;100.00
13367;BME280;6752;52.612;13.630;2023-05-01T01:14:35;101464.72;;;3.62;100.00
13367;BME280;6752;52.612;13.630;2023-05-01T01:19:47;101463.08;;;3.56;100.00
13367;BME280;6752;52.612;13.630;2023-05-01T01:35:24;101449.77;;;3.37;100.00
13367;BME280;6752;52.612;13.630;2023-05-01T01:40:24;101444.68;;;3.43;100.00
13367;BME280;6752;52.612;13.630;2023-05-01T01:45:33;101441.73;;;3.32;100.00
13367;BME280;6752;52.612;13.630;2023-05-01T01:50:28;101429.56;;;3.19;100.00
13367;BME280;6752;52.612;13.630;2023-05-01T01:55:30;101436.22;;;3.02;100.00
13367;BME280;6752;52.612;13.630;2023-05-01T02:00:33;101425.94;;;3.02;100.00
13367;BME280;6752;52.612;13.630;2023-05-01T02:05:35;101431.80;;;2.97;100.00
13367;BME280;6752;52.612;13.630;2023-05-01T02:10:37;101430.27;;;2.86;100.00
13367;BME280;6752;52.612;13.630;2023-05-01T02:15:39;101434.92;;;2.84;100.00
13367;BME280;6752;52.612;13.630;2023-05-01T02:20:42;101423.77;;;2.78;100.00
13367;BME280;6752;52.612;13.630;2023-05-01T02:25:44;101418.54;;;2.77;100.00
13367;BME280;6752;52.612;13.630;2023-05-01T02:30:46;101422.96;;;2.59;100.00
13367;BME280;6752;52.612;13.630;2023-05-01T02:35:49;101412.27;;;2.64;100.00
13367;BME280;6752;52.612;13.630;2023-05-01T02:40:52;101415.58;;;2.66;100.00
13367;BME280;6752;52.612;13.630;2023-05-01T02:45:53;101410.54;;;2.67;100.00
13367;BME280;6752;52.612;13.630;2023-05-01T02:50:56;101397.27;;;2.61;100.00
13367;BME280;6752;52.612;13.630;2023-05-01T02:55:58;101391.22;;;2.86;100.00
13367;BME280;6752;52.612;13.630;2023-05-01T03:01:00;101380.05;;;2.72;100.00
13367;BME280;6752;52.612;13.630;2023-05-01T03:06:02;101377.94;;;2.88;100.00
13367;BME280;6752;52.612;13.630;2023-05-01T03:11:04;101365.32;;;2.62;100.00
13367;BME280;6752;52.612;13.630;2023-05-01T03:16:06;101368.56;;;2.52;100.00
13367;BME280;6752;52.612;13.630;2023-05-01T03:21:08;101361.98;;;2.41;100.00
13367;BME280;6752;52.612;13.630;2023-05-01T03:26:11;101363.87;;;2.31;100.00
13367;BME280;6752;52.612;13.630;2023-05-01T03:31:13;101360.41;;;2.30;100.00
13367;BME280;6752;52.612;13.630;2023-05-01T03:36:16;101346.78;;;2.14;100.00
13367;BME280;6752;52.612;13.630;2023-05-01T03:41:18;101347.52;;;2.20;100.00
13367;BME280;6752;52.612;13.630;2023-05-01T03:46:20;101348.45;;;2.20;100.00
13367;BME280;6752;52.612;13.630;2023-05-01T03:51:23;101350.75;;;2.37;100.00
13367;BME280;6752;52.612;13.630;2023-05-01T03:56:25;101342.45;;;2.26;100.00
13367;BME280;6752;52.612;13.630;2023-05-01T04:01:27;101348.03;;;2.28;100.00
13367;BME280;6752;52.612;13.630;2023-05-01T04:06:30;101334.31;;;2.40;100.00
13367;BME280;6752;52.612;13.630;2023-05-01T04:11:32;101334.58;;;2.51;100.00
13367;BME280;6752;52.612;13.630;2023-05-01T04:16:34;101336.17;;;2.66;100.00
13367;BME280;6752;52.612;13.630;2023-05-01T04:21:37;101332.34;;;3.08;100.00
13367;BME280;6752;52.612;13.630;2023-05-01T04:26:39;101332.82;;;3.69;100.00
13367;BME280;6752;52.612;13.630;2023-05-01T04:31:41;101328.50;;;4.01;100.00
13367;BME280;6752;52.612;13.630;2023-05-01T04:36:43;101329.50;;;4.21;100.00
13367;BME280;6752;52.612;13.630;2023-05-01T04:41:46;101319.91;;;4.56;100.00
13367;BME280;6752;52.612;13.630;2023-05-01T04:46:48;101321.37;;;4.88;100.00
13367;BME280;6752;52.612;13.630;2023-05-01T04:51:51;101322.05;;;5.26;100.00
13367;BME280;6752;52.612;13.630;2023-05-01T04:56:53;101315.27;;;5.47;100.00
13367;BME280;6752;52.612;13.630;2023-05-01T05:01:55;101319.44;;;5.61;100.00
13367;BME280;6752;52.612;13.630;2023-05-01T05:06:58;101319.58;;;5.92;100.00
13367;BME280;6752;52.612;13.630;2023-05-01T05:12:00;101314.69;;;6.23;100.00
13367;BME280;6752;52.612;13.630;2023-05-01T05:17:08;101307.09;;;6.61;100.00
13367;BME280;6752;52.612;13.630;2023-05-01T05:22:11;101306.08;;;6.73;100.00
13367;BME280;6752;52.612;13.630;2023-05-01T05:27:13;101292.78;;;7.05;100.00
13367;BME280;6752;52.612;13.630;2023-05-01T05:32:16;101296.47;;;7.27;100.00
13367;BME280;6752;52.612;13.630;2023-05-01T05:37:18;101285.61;;;7.46;99.59
13367;BME280;6752;52.612;13.630;2023-05-01T05:42:20;101283.02;;;8.15;99.69
13367;BME280;6752;52.612;13.630;2023-05-01T05:47:23;101278.00;;;8.15;96.26
13367;BME280;6752;52.612;13.630;2023-05-01T05:52:25;101275.58;;;8.23;94.66
13367;BME280;6752;52.612;13.630;2023-05-01T05:57:27;101271.15;;;8.63;91.71
13367;BME280;6752;52.612;13.630;2023-05-01T06:02:30;101261.63;;;9.08;86.75
13367;BME280;6752;52.612;13.630;2023-05-01T06:07:32;101265.94;;;9.10;85.99
13367;BME280;6752;52.612;13.630;2023-05-01T06:12:34;101273.03;;;9.36;81.96
13367;BME280;6752;52.612;13.630;2023-05-01T06:17:36;101264.80;;;9.71;78.89
13367;BME280;6752;52.612;13.630;2023-05-01T06:22:38;101253.67;;;9.90;76.52
13367;BME280;6752;52.612;13.630;2023-05-01T06:27:41;101250.20;;;10.37;75.14
13367;BME280;6752;52.612;13.630;2023-05-01T06:32:43;101247.98;;;10.73;72.49
13367;BME280;6752;52.612;13.630;2023-05-01T06:37:45;101249.20;;;10.61;69.72
13367;BME280;6752;52.612;13.630;2023-05-01T06:42:48;101234.95;;;11.31;68.78
13367;BME280;6752;52.612;13.630;2023-05-01T06:47:50;101230.47;;;11.21;65.00
13367;BME280;6752;52.612;13.630;2023-05-01T06:52:53;101229.25;;;11.53;64.80
13367;BME280;6752;52.612;13.630;2023-05-01T06:57:55;101225.47;;;11.96;64.63
13367;BME280;6752;52.612;13.630;2023-05-01T07:02:57;101223.28;;;12.49;62.83
13367;BME280;6752;52.612;13.630;2023-05-01T07:07:59;101218.27;;;12.62;60.92
13367;BME280;6752;52.612;13.630;2023-05-01T07:13:01;101226.37;;;13.03;59.45
13367;BME280;6752;52.612;13.630;2023-05-01T07:18:04;101223.96;;;12.73;58.74
13367;BME280;6752;52.612;13.630;2023-05-01T07:23:09;101223.15;;;13.10;56.22
13367;BME280;6752;52.612;13.630;2023-05-01T07:28:11;101215.44;;;13.38;55.80
13367;BME280;6752;52.612;13.630;2023-05-01T07:33:14;101201.84;;;13.77;56.89
13367;BME280;6752;52.612;13.630;2023-05-01T07:38:16;101201.61;;;14.17;54.78
13367;BME280;6752;52.612;13.630;2023-05-01T07:43:18;101186.11;;;14.62;54.66
13367;BME280;6752;52.612;13.630;2023-05-01T07:48:21;101187.53;;;14.80;54.61
13367;BME280;6752;52.612;13.630;2023-05-01T07:53:23;101173.83;;;15.03;53.17
13367;BME280;6752;52.612;13.630;2023-05-01T07:58:25;101174.58;;;15.36;53.31
13367;BME280;6752;52.612;13.630;2023-05-01T08:03:28;101163.41;;;15.84;51.05
13367;BME280;6752;52.612;13.630;2023-05-01T08:08:30;101158.72;;;15.76;51.76
13367;BME280;6752;52.612;13.630;2023-05-01T08:13:33;101154.80;;;15.72;51.00
13367;BME280;6752;52.612;13.630;2023-05-01T08:18:35;101159.44;;;15.39;51.44
13367;BME280;6752;52.612;13.630;2023-05-01T08:23:36;101152.22;;;15.73;51.22
13367;BME280;6752;52.612;13.630;2023-05-01T08:28:39;101157.31;;;15.50;49.55
13367;BME280;6752;52.612;13.630;2023-05-01T08:33:41;101142.77;;;16.09;50.22
13367;BME280;6752;52.612;13.630;2023-05-01T08:38:43;101147.66;;;17.28;49.02
13367;BME280;6752;52.612;13.630;2023-05-01T08:43:46;101134.91;;;17.14;47.20
13367;BME280;6752;52.612;13.630;2023-05-01T08:48:48;101126.77;;;16.46;47.09
13367;BME280;6752;52.612;13.630;2023-05-01T08:53:51;101128.67;;;16.93;47.13
13367;BME280;6752;52.612;13.630;2023-05-01T08:58:53;101114.34;;;17.62;46.35
13367;BME280;6752;52.612;13.630;2023-05-01T09:03:55;101120.84;;;17.13;46.86
13367;BME280;6752;52.612;13.630;2023-05-01T09:08:58;101097.08;;;18.05;45.17
13367;BME280;6752;52.612;13.630;2023-05-01T09:14:00;101104.61;;;17.33;44.72
13367;BME280;6752;52.612;13.630;2023-05-01T09:19:02;101080.61;;;18.29;44.20
13367;BME280;6752;52.612;13.630;2023-05-01T09:24:05;101069.91;;;18.51;45.07
13367;BME280;6752;52.612;13.630;2023-05-01T09:29:07;101062.75;;;17.80;42.85
13367;BME280;6752;52.612;13.630;2023-05-01T09:34:09;101055.03;;;17.79;43.12
13367;BME280;6752;52.612;13.630;2023-05-01T09:39:12;101044.41;;;17.33;41.92
13367;BME280;6752;52.612;13.630;2023-05-01T09:44:17;101043.41;;;17.66;42.30
13367;BME280;6752;52.612;13.630;2023-05-01T09:49:19;101041.17;;;17.99;41.49
13367;BME280;6752;52.612;13.630;2023-05-01T09:54:21;101019.53;;;18.52;41.39
13367;BME280;6752;52.612;13.630;2023-05-01T09:59:24;101015.76;;;19.42;41.04
13367;BME280;6752;52.612;13.630;2023-05-01T10:04:32;101006.45;;;19.71;42.42
13367;BME280;6752;52.612;13.630;2023-05-01T10:09:34;101000.75;;;19.20;38.88
13367;BME280;6752;52.612;13.630;2023-05-01T10:14:52;100998.98;;;18.70;39.51
13367;BME280;6752;52.612;13.630;2023-05-01T10:19:51;100994.44;;;20.65;39.49
13367;BME280;6752;52.612;13.630;2023-05-01T10:24:53;100982.31;;;19.09;39.86
13367;BME280;6752;52.612;13.630;2023-05-01T10:29:55;100976.75;;;20.35;41.86
13367;BME280;6752;52.612;13.630;2023-05-01T10:35:05;100968.87;;;20.43;41.53
13367;BME280;6752;52.612;13.630;2023-05-01T10:45:44;100946.92;;;20.70;40.39
13367;BME280;6752;52.612;13.630;2023-05-01T10:51:24;100947.28;;;20.02;39.66
13367;BME280;6752;52.612;13.630;2023-05-01T11:06:36;100925.48;;;20.56;39.86
13367;BME280;6752;52.612;13.630;2023-05-01T11:11:44;100922.89;;;20.30;39.52
13367;BME280;6752;52.612;13.630;2023-05-01T11:16:46;100910.22;;;20.71;39.28
13367;BME280;6752;52.612;13.630;2023-05-01T11:21:48;100891.23;;;21.06;38.19
13367;BME280;6752;52.612;13.630;2023-05-01T11:26:51;100887.91;;;21.02;41.16
13367;BME280;6752;52.612;13.630;2023-05-01T11:31:53;100882.91;;;20.76;39.14
13367;BME280;6752;52.612;13.630;2023-05-01T11:36:55;100870.80;;;20.62;40.35
13367;BME280;6752;52.612;13.630;2023-05-01T11:42:10;100869.92;;;20.09;40.78
13367;BME280;6752;52.612;13.630;2023-05-01T11:47:09;100869.77;;;19.21;41.47
13367;BME280;6752;52.612;13.630;2023-05-01T11:52:11;100864.42;;;19.40;41.77
13367;BME280;6752;52.612;13.630;2023-05-01T11:57:14;100853.02;;;20.41;41.30
13367;BME280;6752;52.612;13.630;2023-05-01T12:02:19;100838.84;;;19.95;40.98
13367;BME280;6752;52.612;13.630;2023-05-01T12:07:24;100828.35;;;21.24;40.87
13367;BME280;6752;52.612;13.630;2023-05-01T12:12:27;100815.22;;;20.71;38.06
13367;BME280;6752;52.612;13.630;2023-05-01T12:17:29;100817.55;;;20.33;38.37
13367;BME280;6752;52.612;13.630;2023-05-01T12:22:31;100820.17;;;21.20;38.14
13367;BME280;6752;52.612;13.630;2023-05-01T12:27:41;100810.58;;;21.78;39.09
13367;BME280;6752;52.612;13.630;2023-05-01T12:32:36;100799.43;;;21.37;36.81
13367;BME280;6752;52.612;13.630;2023-05-01T12:37:38;100797.83;;;21.04;37.61
13367;BME280;6752;52.612;13.630;2023-05-01T12:42:41;100782.79;;;21.54;36.98
13367;BME280;6752;52.612;13.630;2023-05-01T12:47:43;100772.35;;;21.24;36.62
13367;BME280;6752;52.612;13.630;2023-05-01T12:52:46;100759.40;;;21.34;36.77
13367;BME280;6752;52.612;13.630;2023-05-01T12:57:51;100761.21;;;20.46;37.55
13367;BME280;6752;52.612;13.630;2023-05-01T13:02:53;100759.90;;;20.60;38.40
13367;BME280;6752;52.612;13.630;2023-05-01T13:07:55;100750.00;;;21.10;37.67
13367;BME280;6752;52.612;13.630;2023-05-01T13:12:58;100748.54;;;21.81;38.82
13367;BME280;6752;52.612;13.630;2023-05-01T13:18:03;100741.34;;;21.80;36.56
13367;BME280;6752;52.612;13.630;2023-05-01T13:23:11;100737.97;;;22.83;36.63
13367;BME280;6752;52.612;13.630;2023-05-01T13:28:19;100739.81;;;20.84;37.20
13367;BME280;6752;52.612;13.630;2023-05-01T13:33:21;100730.88;;;21.96;37.04
13367;BME280;6752;52.612;13.630;2023-05-01T13:38:23;100721.92;;;21.51;36.66
13367;BME280;6752;52.612;13.630;2023-05-01T13:43:26;100726.81;;;20.77;37.06
13367;BME280;6752;52.612;13.630;2023-05-01T13:48:29;100734.95;;;21.19;38.16
13367;BME280;6752;52.612;13.630;2023-05-01T13:53:30;100719.89;;;21.98;38.10
13367;BME280;6752;52.612;13.630;2023-05-01T13:58:35;100712.00;;;22.90;37.69
13367;BME280;6752;52.612;13.630;2023-05-01T14:03:38;100705.13;;;21.66;38.06
13367;BME280;6752;52.612;13.630;2023-05-01T14:08:40;100705.45;;;20.99;38.49
13367;BME280;6752;52.612;13.630;2023-05-01T14:13:43;100692.92;;;21.09;38.56
13367;BME280;6752;52.612;13.630;2023-05-01T14:18:45;100687.13;;;21.20;39.02
13367;BME280;6752;52.612;13.630;2023-05-01T14:23:47;100687.93;;;20.92;38.40
13367;BME280;6752;52.612;13.630;2023-05-01T14:28:49;100690.44;;;20.71;39.87
13367;BME280;6752;52.612;13.630;2023-05-01T14:33:58;100676.75;;;21.48;39.62
13367;BME280;6752;52.612;13.630;2023-05-01T14:39:01;100667.84;;;21.22;38.27
13367;BME280;6752;52.612;13.630;2023-05-01T14:44:02;100673.81;;;21.05;39.50
13367;BME280;6752;52.612;13.630;2023-05-01T14:49:05;100662.01;;;21.26;38.71
13367;BME280;6752;52.612;13.630;2023-05-01T14:54:08;100652.53;;;21.15;37.39
13367;BME280;6752;52.612;13.630;2023-05-01T14:59:09;100645.03;;;22.35;38.36
13367;BME280;6752;52.612;13.630;2023-05-01T15:04:15;100642.92;;;21.84;37.22
13367;BME280;6752;52.612;13.630;2023-05-01T15:09:20;100650.21;;;21.42;38.31
13367;BME280;6752;52.612;13.630;2023-05-01T15:14:22;100646.91;;;20.77;36.61
13367;BME280;6752;52.612;13.630;2023-05-01T15:19:24;100632.96;;;20.90;36.96
13367;BME280;6752;52.612;13.630;2023-05-01T15:24:27;100640.22;;;20.97;37.60
13367;BME280;6752;52.612;13.630;2023-05-01T15:29:32;100646.92;;;20.35;38.18
13367;BME280;6752;52.612;13.630;2023-05-01T15:34:34;100643.98;;;20.38;39.23
13367;BME280;6752;52.612;13.630;2023-05-01T15:39:37;100644.36;;;19.60;39.81
13367;BME280;6752;52.612;13.630;2023-05-01T15:44:39;100635.95;;;19.90;38.72
13367;BME280;6752;52.612;13.630;2023-05-01T15:49:41;100634.08;;;19.75;39.32
13367;BME280;6752;52.612;13.630;2023-05-01T15:54:47;100631.13;;;19.89;39.70
13367;BME280;6752;52.612;13.630;2023-05-01T15:59:46;100623.48;;;19.95;40.77
13367;BME280;6752;52.612;13.630;2023-05-01T16:04:48;100629.27;;;19.69;40.63
13367;BME280;6752;52.612;13.630;2023-05-01T16:09:51;100631.52;;;19.39;42.22
13367;BME280;6752;52.612;13.630;2023-05-01T16:14:55;100633.87;;;19.39;41.46
13367;BME280;6752;52.612;13.630;2023-05-01T16:19:58;100631.67;;;19.43;41.54
13367;BME280;6752;52.612;13.630;2023-05-01T16:25:00;100623.23;;;19.47;41.27
13367;BME280;6752;52.612;13.630;2023-05-01T16:30:03;100620.71;;;19.60;41.43
13367;BME280;6752;52.612;13.630;2023-05-01T16:35:04;100620.02;;;19.67;42.76
13367;BME280;6752;52.612;13.630;2023-05-01T16:40:07;100626.28;;;19.90;43.85
13367;BME280;6752;52.612;13.630;2023-05-01T16:45:09;100614.49;;;20.19;41.23
13367;BME280;6752;52.612;13.630;2023-05-01T16:50:12;100616.19;;;20.09;42.04
13367;BME280;6752;52.612;13.630;2023-05-01T16:55:14;100615.16;;;19.71;42.62
13367;BME280;6752;52.612;13.630;2023-05-01T17:00:16;100623.20;;;19.62;42.45
13367;BME280;6752;52.612;13.630;2023-05-01T17:05:18;100619.58;;;19.09;43.06
13367;BME280;6752;52.612;13.630;2023-05-01T17:10:26;100626.36;;;18.89;43.93
13367;BME280;6752;52.612;13.630;2023-05-01T17:15:28;100624.45;;;18.75;43.39
13367;BME280;6752;52.612;13.630;2023-05-01T17:20:34;100623.59;;;18.46;44.21
13367;BME280;6752;52.612;13.630;2023-05-01T17:25:33;100622.31;;;18.38;45.07
13367;BME280;6752;52.612;13.630;2023-05-01T17:30:35;100623.14;;;18.33;45.75
13367;BME280;6752;52.612;13.630;2023-05-01T17:35:37;100621.45;;;18.17;45.80
13367;BME280;6752;52.612;13.630;2023-05-01T17:40:40;100624.95;;;17.89;46.61
13367;BME280;6752;52.612;13.630;2023-05-01T17:45:42;100628.92;;;17.75;47.56
13367;BME280;6752;52.612;13.630;2023-05-01T17:50:44;100632.41;;;17.63;47.86
13367;BME280;6752;52.612;13.630;2023-05-01T17:55:47;100631.70;;;17.61;48.80
13367;BME280;6752;52.612;13.630;2023-05-01T18:00:49;100626.52;;;17.44;49.40
13367;BME280;6752;52.612;13.630;2023-05-01T18:05:51;100622.06;;;17.61;51.77
13367;BME280;6752;52.612;13.630;2023-05-01T18:10:54;100615.36;;;17.45;51.93
13367;BME280;6752;52.612;13.630;2023-05-01T18:15:56;100614.75;;;17.32;54.20
13367;BME280;6752;52.612;13.630;2023-05-01T18:20:58;100627.44;;;17.12;62.58
13367;BME280;6752;52.612;13.630;2023-05-01T18:26:01;100616.52;;;16.85;65.35
13367;BME280;6752;52.612;13.630;2023-05-01T18:31:03;100606.91;;;16.75;68.25
13367;BME280;6752;52.612;13.630;2023-05-01T18:36:06;100616.11;;;16.29;73.23
13367;BME280;6752;52.612;13.630;2023-05-01T18:41:08;100609.81;;;16.17;71.34
13367;BME280;6752;52.612;13.630;2023-05-01T18:46:10;100610.34;;;16.03;73.29
13367;BME280;6752;52.612;13.630;2023-05-01T18:51:13;100612.09;;;15.99;73.02
13367;BME280;6752;52.612;13.630;2023-05-01T18:56:15;100617.73;;;15.76;72.23
13367;BME280;6752;52.612;13.630;2023-05-01T19:01:17;100622.95;;;15.45;74.67
13367;BME280;6752;52.612;13.630;2023-05-01T19:06:20;100625.08;;;15.51;74.00
13367;BME280;6752;52.612;13.630;2023-05-01T19:11:22;100627.89;;;15.15;78.71
13367;BME280;6752;52.612;13.630;2023-05-01T19:16:24;100625.62;;;15.20;74.83
13367;BME280;6752;52.612;13.630;2023-05-01T19:21:26;100619.17;;;15.12;76.25
13367;BME280;6752;52.612;13.630;2023-05-01T19:26:29;100627.90;;;14.56;80.54
13367;BME280;6752;52.612;13.630;2023-05-01T19:31:31;100627.73;;;14.46;77.14
13367;BME280;6752;52.612;13.630;2023-05-01T19:36:33;100624.02;;;14.40;77.64
13367;BME280;6752;52.612;13.630;2023-05-01T19:41:36;100624.59;;;14.26;76.23
13367;BME280;6752;52.612;13.630;2023-05-01T19:46:38;100618.95;;;14.24;75.64
13367;BME280;6752;52.612;13.630;2023-05-01T19:51:40;100623.27;;;14.14;78.11
13367;BME280;6752;52.612;13.630;2023-05-01T19:56:43;100621.10;;;14.08;80.72
13367;BME280;6752;52.612;13.630;2023-05-01T20:01:45;100619.70;;;13.85;82.44
13367;BME280;6752;52.612;13.630;2023-05-01T20:06:48;100615.30;;;13.64;82.27
13367;BME280;6752;52.612;13.630;2023-05-01T20:11:50;100611.62;;;13.58;78.48
13367;BME280;6752;52.612;13.630;2023-05-01T20:16:52;100606.91;;;13.62;78.63
13367;BME280;6752;52.612;13.630;2023-05-01T20:21:55;100614.20;;;13.45;84.24
13367;BME280;6752;52.612;13.630;2023-05-01T20:26:57;100607.05;;;13.18;84.46
13367;BME280;6752;52.612;13.630;2023-05-01T20:31:59;100606.86;;;13.10;80.92
13367;BME280;6752;52.612;13.630;2023-05-01T20:37:02;100606.52;;;13.18;78.36
13367;BME280;6752;52.612;13.630;2023-05-01T20:42:04;100607.33;;;12.90;83.20
13367;BME280;6752;52.612;13.630;2023-05-01T20:47:06;100600.86;;;12.82;81.87
13367;BME280;6752;52.612;13.630;2023-05-01T20:52:09;100613.64;;;12.90;81.46
13367;BME280;6752;52.612;13.630;2023-05-01T20:57:12;100615.84;;;12.91;82.58
13367;BME280;6752;52.612;13.630;2023-05-01T21:02:16;100602.73;;;12.75;86.77
13367;BME280;6752;52.612;13.630;2023-05-01T21:07:19;100614.81;;;12.77;88.39
13367;BME280;6752;52.612;13.630;2023-05-01T21:12:21;100618.38;;;12.60;92.81
13367;BME280;6752;52.612;13.630;2023-05-01T21:17:23;100616.95;;;12.63;87.95
13367;BME280;6752;52.612;13.630;2023-05-01T21:22:26;100621.17;;;12.56;85.58
13367;BME280;6752;52.612;13.630;2023-05-01T21:27:28;100615.48;;;12.43;84.77
13367;BME280;6752;52.612;13.630;2023-05-01T21:32:38;100616.44;;;12.49;83.76
13367;BME280;6752;52.612;13.630;2023-05-01T21:37:35;100617.27;;;12.49;82.86
13367;BME280;6752;52.612;13.630;2023-05-01T21:42:38;100617.50;;;12.42;88.99
13367;BME280;6752;52.612;13.630;2023-05-01T21:47:41;100620.66;;;12.48;87.46
13367;BME280;6752;52.612;13.630;2023-05-01T21:52:42;100620.13;;;12.42;87.90
13367;BME280;6752;52.612;13.630;2023-05-01T21:57:44;100615.67;;;12.45;86.21
13367;BME280;6752;52.612;13.630;2023-05-01T22:02:47;100628.55;;;12.20;93.87
13367;BME280;6752;52.612;13.630;2023-05-01T22:07:49;100629.49;;;12.14;95.76
13367;BME280;6752;52.612;13.630;2023-05-01T22:12:54;100629.12;;;12.10;98.99
13367;BME280;6752;52.612;13.630;2023-05-01T22:17:56;100623.57;;;12.23;98.02
13367;BME280;6752;52.612;13.630;2023-05-01T22:22:58;100626.94;;;12.16;96.95
13367;BME280;6752;52.612;13.630;2023-05-01T22:28:01;100625.39;;;12.14;96.51
13367;BME280;6752;52.612;13.630;2023-05-01T22:33:03;100622.32;;;12.22;95.55
13367;BME280;6752;52.612;13.630;2023-05-01T22:38:05;100632.47;;;11.88;100.00
13367;BME280;6752;52.612;13.630;2023-05-01T22:43:08;100630.11;;;11.83;98.11
13367;BME280;6752;52.612;13.630;2023-05-01T22:48:10;100630.05;;;11.89;96.25
13367;BME280;6752;52.612;13.630;2023-05-01T22:53:12;100634.02;;;11.81;96.53
13367;BME280;6752;52.612;13.630;2023-05-01T22:58:15;100628.80;;;11.79;99.31
13367;BME280;6752;52.612;13.630;2023-05-01T23:03:17;100635.36;;;11.99;95.72
13367;BME280;6752;52.612;13.630;2023-05-01T23:08:19;100636.49;;;12.01;94.55
13367;BME280;6752;52.612;13.630;2023-05-01T23:13:22;100639.22;;;12.01;93.08
13367;BME280;6752;52.612;13.630;2023-05-01T23:18:29;100646.62;;;11.91;96.89
13367;BME280;6752;52.612;13.630;2023-05-01T23:23:30;100641.50;;;11.89;99.83
13367;BME280;6752;52.612;13.630;2023-05-01T23:28:29;100641.80;;;11.81;100.00
13367;BME280;6752;52.612;13.630;2023-05-01T23:33:34;100636.03;;;11.80;100.00
13367;BME280;6752;52.612;13.630;2023-05-01T23:38:37;100633.50;;;11.63;100.00
13367;BME280;6752;52.612;13.630;2023-05-01T23:43:39;100636.42;;;11.65;100.00
13367;BME280;6752;52.612;13.630;2023-05-01T23:48:41;100633.03;;;11.57;100.00
13367;BME280;6752;52.612;13.630;2023-05-01T23:53:43;100630.69;;;11.51;100.00
13367;BME280;6752;52.612;13.630;2023-05-01T23:58:46;100630.77;;;11.45;100.00
